sensor_id;sensor_type;location;lat;lon;timestamp;temperature;humidity
39847;DHT22;25517;52.422;10.782;2023-04-24T00:00:13;13.80;99.90
39847;DHT22;25517;52.422;10.782;2023-04-24T00:02:39;13.80;99.90
39847;DHT22;25517;52.422;10.782;2023-04-24T00:05:05;13.80;99.90
39847;DHT22;25517;52.422;10.782;2023-04-24T00:07:31;13.80;99.90
39847;DHT22;25517;52.422;10.782;2023-04-24T00:09:57;13.80;99.90
39847;DHT22;25517;52.422;10.782;2023-04-24T00:12:23;13.80;99.90
39847;DHT22;25517;52.422;10.782;2023-04-24T00:14:49;13.80;99.90
39847;DHT22;25517;52.422;10.782;2023-04-24T00:17:15;13.80;99.90
39847;DHT22;25517;52.422;10.782;2023-04-24T00:19:41;13.70;99.90
39847;DHT22;25517;52.422;10.782;2023-04-24T00:22:06;13.60;99.90
39847;DHT22;25517;52.422;10.782;2023-04-24T00:24:32;13.60;99.90
39847;DHT22;25517;52.422;10.782;2023-04-24T00:26:58;13.70;99.90
39847;DHT22;25517;52.422;10.782;2023-04-24T00:29:23;13.60;99.90
39847;DHT22;25517;52.422;10.782;2023-04-24T00:31:49;13.60;99.90
39847;DHT22;25517;52.422;10.782;2023-04-24T00:34:15;13.50;99.90
39847;DHT22;25517;52.422;10.782;2023-04-24T00:36:40;13.50;99.90
39847;DHT22;25517;52.422;10.782;2023-04-24T00:39:06;13.50;99.90
39847;DHT22;25517;52.422;10.782;2023-04-24T00:41:34;13.40;99.90
39847;DHT22;25517;52.422;10.782;2023-04-24T00:43:59;13.40;99.90
39847;DHT22;25517;52.422;10.782;2023-04-24T00:46:25;13.40;99.90
39847;DHT22;25517;52.422;10.782;2023-04-24T00:48:50;13.40;99.90
39847;DHT22;25517;52.422;10.782;2023-04-24T00:51:16;13.30;99.90
39847;DHT22;25517;52.422;10.782;2023-04-24T00:53:42;13.30;99.90
39847;DHT22;25517;52.422;10.782;2023-04-24T00:56:08;13.30;99.90
39847;DHT22;25517;52.422;10.782;2023-04-24T00:58:33;13.30;99.90
39847;DHT22;25517;52.422;10.782;2023-04-24T01:00:59;13.20;99.90
39847;DHT22;25517;52.422;10.782;2023-04-24T01:03:29;13.10;99.90
39847;DHT22;25517;52.422;10.782;2023-04-24T01:05:56;13.10;99.90
39847;DHT22;25517;52.422;10.782;2023-04-24T01:08:23;13.10;99.90
39847;DHT22;25517;52.422;10.782;2023-04-24T01:10:51;13.00;99.90
39847;DHT22;25517;52.422;10.782;2023-04-24T01:13:18;13.00;99.90
39847;DHT22;25517;52.422;10.782;2023-04-24T01:15:44;13.00;99.90
39847;DHT22;25517;52.422;10.782;2023-04-24T01:18:10;12.90;99.90
39847;DHT22;25517;52.422;10.782;2023-04-24T01:20:37;12.90;99.90
39847;DHT22;25517;52.422;10.782;2023-04-24T01:23:08;12.90;99.90
39847;DHT22;25517;52.422;10.782;2023-04-24T01:25:34;12.90;99.90
39847;DHT22;25517;52.422;10.782;2023-04-24T01:28:00;12.90;99.90
39847;DHT22;25517;52.422;10.782;2023-04-24T01:30:26;12.90;99.90
39847;DHT22;25517;52.422;10.782;2023-04-24T01:32:53;13.00;99.90
39847;DHT22;25517;52.422;10.782;2023-04-24T01:35:19;12.90;99.90
39847;DHT22;25517;52.422;10.782;2023-04-24T01:37:45;12.90;99.90
39847;DHT22;25517;52.422;10.782;2023-04-24T01:40:11;12.90;99.90
39847;DHT22;25517;52.422;10.782;2023-04-24T01:42:37;12.80;99.90
39847;DHT22;25517;52.422;10.782;2023-04-24T01:45:04;12.90;99.90
39847;DHT22;25517;52.422;10.782;2023-04-24T01:47:31;12.80;99.90
39847;DHT22;25517;52.422;10.782;2023-04-24T01:49:58;12.80;99.90
39847;DHT22;25517;52.422;10.782;2023-04-24T01:52:24;12.80;99.90
39847;DHT22;25517;52.422;10.782;2023-04-24T01:54:49;12.70;99.90
39847;DHT22;25517;52.422;10.782;2023-04-24T01:57:16;12.70;99.90
39847;DHT22;25517;52.422;10.782;2023-04-24T01:59:41;12.70;99.90
39847;DHT22;25517;52.422;10.782;2023-04-24T02:02:07;12.60;99.90
39847;DHT22;25517;52.422;10.782;2023-04-24T02:04:33;12.60;99.90
39847;DHT22;25517;52.422;10.782;2023-04-24T02:06:58;12.60;99.90
39847;DHT22;25517;52.422;10.782;2023-04-24T02:09:24;12.60;99.90
39847;DHT22;25517;52.422;10.782;2023-04-24T02:11:50;12.50;99.90
39847;DHT22;25517;52.422;10.782;2023-04-24T02:14:15;12.50;99.90
39847;DHT22;25517;52.422;10.782;2023-04-24T02:16:41;12.50;99.90
39847;DHT22;25517;52.422;10.782;2023-04-24T02:19:07;12.40;99.90
39847;DHT22;25517;52.422;10.782;2023-04-24T02:21:33;12.50;99.90
39847;DHT22;25517;52.422;10.782;2023-04-24T02:23:58;12.40;99.90
39847;DHT22;25517;52.422;10.782;2023-04-24T02:26:24;12.40;99.90
39847;DHT22;25517;52.422;10.782;2023-04-24T02:28:50;12.40;99.90
39847;DHT22;25517;52.422;10.782;2023-04-24T02:31:15;12.50;99.90
39847;DHT22;25517;52.422;10.782;2023-04-24T02:33:41;12.40;99.90
39847;DHT22;25517;52.422;10.782;2023-04-24T02:36:06;12.40;99.90
39847;DHT22;25517;52.422;10.782;2023-04-24T02:38:32;12.40;99.90
39847;DHT22;25517;52.422;10.782;2023-04-24T02:40:58;12.30;99.90
39847;DHT22;25517;52.422;10.782;2023-04-24T02:43:23;12.30;99.90
39847;DHT22;25517;52.422;10.782;2023-04-24T02:45:49;12.20;99.90
39847;DHT22;25517;52.422;10.782;2023-04-24T02:48:14;12.30;99.90
39847;DHT22;25517;52.422;10.782;2023-04-24T02:50:40;12.30;99.90
39847;DHT22;25517;52.422;10.782;2023-04-24T02:53:06;12.20;99.90
39847;DHT22;25517;52.422;10.782;2023-04-24T02:55:32;12.20;99.90
39847;DHT22;25517;52.422;10.782;2023-04-24T02:57:57;12.10;99.90
39847;DHT22;25517;52.422;10.782;2023-04-24T03:00:23;12.10;99.90
39847;DHT22;25517;52.422;10.782;2023-04-24T03:02:48;12.10;99.90
39847;DHT22;25517;52.422;10.782;2023-04-24T03:05:15;12.10;99.90
39847;DHT22;25517;52.422;10.782;2023-04-24T03:07:41;12.00;99.90
39847;DHT22;25517;52.422;10.782;2023-04-24T03:10:07;12.00;99.90
39847;DHT22;25517;52.422;10.782;2023-04-24T03:12:33;12.00;99.90
39847;DHT22;25517;52.422;10.782;2023-04-24T03:14:58;11.90;99.90
39847;DHT22;25517;52.422;10.782;2023-04-24T03:17:24;11.90;99.90
39847;DHT22;25517;52.422;10.782;2023-04-24T03:19:49;11.80;99.90
39847;DHT22;25517;52.422;10.782;2023-04-24T03:22:15;11.80;99.90
39847;DHT22;25517;52.422;10.782;2023-04-24T03:24:41;11.70;99.90
39847;DHT22;25517;52.422;10.782;2023-04-24T03:27:06;11.70;99.90
39847;DHT22;25517;52.422;10.782;2023-04-24T03:29:32;11.60;99.90
39847;DHT22;25517;52.422;10.782;2023-04-24T03:31:57;11.60;99.90
39847;DHT22;25517;52.422;10.782;2023-04-24T03:34:23;11.50;99.90
39847;DHT22;25517;52.422;10.782;2023-04-24T03:36:48;11.50;99.90
39847;DHT22;25517;52.422;10.782;2023-04-24T03:39:14;11.50;99.90
39847;DHT22;25517;52.422;10.782;2023-04-24T03:41:39;11.40;99.90
39847;DHT22;25517;52.422;10.782;2023-04-24T03:44:05;11.40;99.90
39847;DHT22;25517;52.422;10.782;2023-04-24T03:46:30;11.40;99.90
39847;DHT22;25517;52.422;10.782;2023-04-24T03:48:56;11.40;99.90
39847;DHT22;25517;52.422;10.782;2023-04-24T03:51:21;11.30;99.90
39847;DHT22;25517;52.422;10.782;2023-04-24T03:53:48;11.20;99.90
39847;DHT22;25517;52.422;10.782;2023-04-24T03:56:14;11.20;99.90
39847;DHT22;25517;52.422;10.782;2023-04-24T03:58:39;11.20;99.90
39847;DHT22;25517;52.422;10.782;2023-04-24T04:01:05;11.30;99.90
39847;DHT22;25517;52.422;10.782;2023-04-24T04:03:30;11.20;99.90
39847;DHT22;25517;52.422;10.782;2023-04-24T04:05:56;11.20;99.90
39847;DHT22;25517;52.422;10.782;2023-04-24T04:08:22;11.20;99.90
39847;DHT22;25517;52.422;10.782;2023-04-24T04:10:47;11.10;99.90
39847;DHT22;25517;52.422;10.782;2023-04-24T04:13:13;11.20;99.90
39847;DHT22;25517;52.422;10.782;2023-04-24T04:15:39;11.10;99.90
39847;DHT22;25517;52.422;10.782;2023-04-24T04:18:05;11.10;99.90
39847;DHT22;25517;52.422;10.782;2023-04-24T04:20:30;11.10;99.90
39847;DHT22;25517;52.422;10.782;2023-04-24T04:22:56;11.10;99.90
39847;DHT22;25517;52.422;10.782;2023-04-24T04:25:21;11.10;99.90
39847;DHT22;25517;52.422;10.782;2023-04-24T04:27:48;11.20;99.90
39847;DHT22;25517;52.422;10.782;2023-04-24T04:30:14;11.20;99.90
39847;DHT22;25517;52.422;10.782;2023-04-24T04:32:40;11.20;99.90
39847;DHT22;25517;52.422;10.782;2023-04-24T04:35:06;11.20;99.90
39847;DHT22;25517;52.422;10.782;2023-04-24T04:37:32;11.30;99.90
39847;DHT22;25517;52.422;10.782;2023-04-24T04:40:02;11.30;99.90
39847;DHT22;25517;52.422;10.782;2023-04-24T04:42:37;11.30;99.90
39847;DHT22;25517;52.422;10.782;2023-04-24T04:45:08;11.30;99.90
39847;DHT22;25517;52.422;10.782;2023-04-24T04:47:34;11.30;99.90
39847;DHT22;25517;52.422;10.782;2023-04-24T04:50:00;11.30;99.90
39847;DHT22;25517;52.422;10.782;2023-04-24T04:52:26;11.30;99.90
39847;DHT22;25517;52.422;10.782;2023-04-24T04:54:52;11.40;99.90
39847;DHT22;25517;52.422;10.782;2023-04-24T04:57:17;11.40;99.90
39847;DHT22;25517;52.422;10.782;2023-04-24T04:59:43;11.30;99.90
39847;DHT22;25517;52.422;10.782;2023-04-24T05:02:09;11.20;99.90
39847;DHT22;25517;52.422;10.782;2023-04-24T05:04:34;11.20;99.90
39847;DHT22;25517;52.422;10.782;2023-04-24T05:07:00;11.30;99.90
39847;DHT22;25517;52.422;10.782;2023-04-24T05:09:25;11.20;99.90
39847;DHT22;25517;52.422;10.782;2023-04-24T05:11:52;11.20;99.90
39847;DHT22;25517;52.422;10.782;2023-04-24T05:14:18;11.20;99.90
39847;DHT22;25517;52.422;10.782;2023-04-24T05:16:44;11.20;99.90
39847;DHT22;25517;52.422;10.782;2023-04-24T05:19:10;11.20;99.90
39847;DHT22;25517;52.422;10.782;2023-04-24T05:21:37;11.20;99.90
39847;DHT22;25517;52.422;10.782;2023-04-24T05:24:03;11.20;99.90
39847;DHT22;25517;52.422;10.782;2023-04-24T05:26:28;11.30;99.90
39847;DHT22;25517;52.422;10.782;2023-04-24T05:28:54;11.30;99.90
39847;DHT22;25517;52.422;10.782;2023-04-24T05:31:19;11.40;99.90
39847;DHT22;25517;52.422;10.782;2023-04-24T05:33:45;11.50;99.90
39847;DHT22;25517;52.422;10.782;2023-04-24T05:36:10;11.60;99.90
39847;DHT22;25517;52.422;10.782;2023-04-24T05:38:36;11.60;99.90
39847;DHT22;25517;52.422;10.782;2023-04-24T05:41:01;11.80;99.90
39847;DHT22;25517;52.422;10.782;2023-04-24T05:43:27;11.70;99.90
39847;DHT22;25517;52.422;10.782;2023-04-24T05:45:52;11.80;99.90
39847;DHT22;25517;52.422;10.782;2023-04-24T05:48:18;11.80;99.90
39847;DHT22;25517;52.422;10.782;2023-04-24T05:50:44;11.90;99.90
39847;DHT22;25517;52.422;10.782;2023-04-24T05:53:09;12.00;99.90
39847;DHT22;25517;52.422;10.782;2023-04-24T05:55:36;12.00;99.90
39847;DHT22;25517;52.422;10.782;2023-04-24T05:58:02;12.00;99.90
39847;DHT22;25517;52.422;10.782;2023-04-24T06:00:27;12.00;99.90
39847;DHT22;25517;52.422;10.782;2023-04-24T06:02:54;12.00;99.90
39847;DHT22;25517;52.422;10.782;2023-04-24T06:05:19;12.10;99.90
39847;DHT22;25517;52.422;10.782;2023-04-24T06:07:45;12.10;99.90
39847;DHT22;25517;52.422;10.782;2023-04-24T06:10:11;12.20;99.90
39847;DHT22;25517;52.422;10.782;2023-04-24T06:12:36;12.30;99.90
39847;DHT22;25517;52.422;10.782;2023-04-24T06:15:03;12.30;99.90
39847;DHT22;25517;52.422;10.782;2023-04-24T06:17:28;12.40;99.90
39847;DHT22;25517;52.422;10.782;2023-04-24T06:19:54;12.40;99.90
39847;DHT22;25517;52.422;10.782;2023-04-24T06:22:20;12.40;99.90
39847;DHT22;25517;52.422;10.782;2023-04-24T06:24:45;12.40;99.90
39847;DHT22;25517;52.422;10.782;2023-04-24T06:27:12;12.50;99.90
39847;DHT22;25517;52.422;10.782;2023-04-24T06:29:38;12.60;99.90
39847;DHT22;25517;52.422;10.782;2023-04-24T06:32:03;12.70;99.90
39847;DHT22;25517;52.422;10.782;2023-04-24T06:34:29;12.90;99.90
39847;DHT22;25517;52.422;10.782;2023-04-24T06:36:56;13.10;99.90
39847;DHT22;25517;52.422;10.782;2023-04-24T06:39:21;13.20;99.90
39847;DHT22;25517;52.422;10.782;2023-04-24T06:41:47;13.30;99.90
39847;DHT22;25517;52.422;10.782;2023-04-24T06:44:12;13.50;99.90
39847;DHT22;25517;52.422;10.782;2023-04-24T06:46:40;13.50;99.90
39847;DHT22;25517;52.422;10.782;2023-04-24T06:49:06;13.60;99.90
39847;DHT22;25517;52.422;10.782;2023-04-24T06:51:31;13.60;99.90
39847;DHT22;25517;52.422;10.782;2023-04-24T06:53:58;13.50;99.90
39847;DHT22;25517;52.422;10.782;2023-04-24T06:56:24;13.50;99.90
39847;DHT22;25517;52.422;10.782;2023-04-24T06:58:50;13.40;99.90
39847;DHT22;25517;52.422;10.782;2023-04-24T07:01:16;13.40;99.90
39847;DHT22;25517;52.422;10.782;2023-04-24T07:03:42;13.20;99.90
39847;DHT22;25517;52.422;10.782;2023-04-24T07:06:08;13.20;99.90
39847;DHT22;25517;52.422;10.782;2023-04-24T07:08:34;13.10;99.90
39847;DHT22;25517;52.422;10.782;2023-04-24T07:11:01;13.20;99.90
39847;DHT22;25517;52.422;10.782;2023-04-24T07:13:27;13.10;99.90
39847;DHT22;25517;52.422;10.782;2023-04-24T07:15:53;13.10;99.90
39847;DHT22;25517;52.422;10.782;2023-04-24T07:18:20;13.10;99.90
39847;DHT22;25517;52.422;10.782;2023-04-24T07:20:46;13.20;99.90
39847;DHT22;25517;52.422;10.782;2023-04-24T07:23:12;13.30;99.90
39847;DHT22;25517;52.422;10.782;2023-04-24T07:25:38;13.20;99.90
39847;DHT22;25517;52.422;10.782;2023-04-24T07:28:04;13.30;99.90
39847;DHT22;25517;52.422;10.782;2023-04-24T07:30:30;13.30;99.90
39847;DHT22;25517;52.422;10.782;2023-04-24T07:32:56;13.30;99.90
39847;DHT22;25517;52.422;10.782;2023-04-24T07:35:21;13.30;99.90
39847;DHT22;25517;52.422;10.782;2023-04-24T07:37:47;13.50;99.90
39847;DHT22;25517;52.422;10.782;2023-04-24T07:40:13;13.70;99.90
39847;DHT22;25517;52.422;10.782;2023-04-24T07:42:39;13.80;99.90
39847;DHT22;25517;52.422;10.782;2023-04-24T07:45:05;13.90;99.90
39847;DHT22;25517;52.422;10.782;2023-04-24T07:47:31;14.00;99.90
39847;DHT22;25517;52.422;10.782;2023-04-24T07:49:57;13.90;99.90
39847;DHT22;25517;52.422;10.782;2023-04-24T07:52:23;14.20;99.90
39847;DHT22;25517;52.422;10.782;2023-04-24T07:54:49;14.40;99.90
39847;DHT22;25517;52.422;10.782;2023-04-24T07:57:15;14.30;99.90
39847;DHT22;25517;52.422;10.782;2023-04-24T07:59:41;14.40;99.90
39847;DHT22;25517;52.422;10.782;2023-04-24T08:02:07;14.10;99.90
39847;DHT22;25517;52.422;10.782;2023-04-24T08:04:33;14.10;99.90
39847;DHT22;25517;52.422;10.782;2023-04-24T08:06:59;13.90;99.90
39847;DHT22;25517;52.422;10.782;2023-04-24T08:09:25;13.70;99.90
39847;DHT22;25517;52.422;10.782;2023-04-24T08:11:50;13.30;99.90
39847;DHT22;25517;52.422;10.782;2023-04-24T08:14:16;13.00;99.90
39847;DHT22;25517;52.422;10.782;2023-04-24T08:16:41;12.90;99.90
39847;DHT22;25517;52.422;10.782;2023-04-24T08:19:07;12.70;99.90
39847;DHT22;25517;52.422;10.782;2023-04-24T08:21:33;12.60;99.90
39847;DHT22;25517;52.422;10.782;2023-04-24T08:23:58;12.40;99.90
39847;DHT22;25517;52.422;10.782;2023-04-24T08:26:24;12.30;99.90
39847;DHT22;25517;52.422;10.782;2023-04-24T08:28:50;11.80;99.90
39847;DHT22;25517;52.422;10.782;2023-04-24T08:31:15;11.60;99.90
39847;DHT22;25517;52.422;10.782;2023-04-24T08:33:41;11.50;99.90
39847;DHT22;25517;52.422;10.782;2023-04-24T08:36:07;11.50;99.90
39847;DHT22;25517;52.422;10.782;2023-04-24T08:38:33;11.60;99.90
39847;DHT22;25517;52.422;10.782;2023-04-24T08:41:00;11.60;99.90
39847;DHT22;25517;52.422;10.782;2023-04-24T08:43:26;11.70;99.90
39847;DHT22;25517;52.422;10.782;2023-04-24T08:45:52;11.80;99.90
39847;DHT22;25517;52.422;10.782;2023-04-24T08:48:18;11.90;99.90
39847;DHT22;25517;52.422;10.782;2023-04-24T08:50:44;11.90;99.90
39847;DHT22;25517;52.422;10.782;2023-04-24T08:53:10;12.00;99.90
39847;DHT22;25517;52.422;10.782;2023-04-24T08:55:37;12.10;99.90
39847;DHT22;25517;52.422;10.782;2023-04-24T08:58:03;12.30;99.90
39847;DHT22;25517;52.422;10.782;2023-04-24T09:00:29;12.40;99.90
39847;DHT22;25517;52.422;10.782;2023-04-24T09:02:55;12.50;99.90
39847;DHT22;25517;52.422;10.782;2023-04-24T09:05:22;12.80;99.90
39847;DHT22;25517;52.422;10.782;2023-04-24T09:07:56;13.80;99.90
39847;DHT22;25517;52.422;10.782;2023-04-24T09:10:23;14.20;99.90
39847;DHT22;25517;52.422;10.782;2023-04-24T09:12:51;15.60;99.90
39847;DHT22;25517;52.422;10.782;2023-04-24T09:15:18;17.60;99.90
39847;DHT22;25517;52.422;10.782;2023-04-24T09:17:43;18.20;96.10
39847;DHT22;25517;52.422;10.782;2023-04-24T09:20:09;18.50;94.70
39847;DHT22;25517;52.422;10.782;2023-04-24T09:22:36;18.60;92.20
39847;DHT22;25517;52.422;10.782;2023-04-24T09:25:07;18.20;92.30
39847;DHT22;25517;52.422;10.782;2023-04-24T09:27:33;17.70;92.30
39847;DHT22;25517;52.422;10.782;2023-04-24T09:29:59;17.00;94.10
39847;DHT22;25517;52.422;10.782;2023-04-24T09:32:26;16.20;94.00
39847;DHT22;25517;52.422;10.782;2023-04-24T09:37:37;15.00;97.00
39847;DHT22;25517;52.422;10.782;2023-04-24T09:40:09;14.60;98.30
39847;DHT22;25517;52.422;10.782;2023-04-24T09:42:36;14.30;98.90
39847;DHT22;25517;52.422;10.782;2023-04-24T09:45:02;14.30;98.10
39847;DHT22;25517;52.422;10.782;2023-04-24T09:47:38;15.20;97.80
39847;DHT22;25517;52.422;10.782;2023-04-24T09:50:15;17.60;92.70
39847;DHT22;25517;52.422;10.782;2023-04-24T09:52:42;19.90;90.30
39847;DHT22;25517;52.422;10.782;2023-04-24T09:55:13;20.90;80.00
39847;DHT22;25517;52.422;10.782;2023-04-24T09:57:56;21.80;79.80
39847;DHT22;25517;52.422;10.782;2023-04-24T10:00:30;23.00;73.60
39847;DHT22;25517;52.422;10.782;2023-04-24T10:03:00;22.90;65.80
39847;DHT22;25517;52.422;10.782;2023-04-24T10:05:31;21.30;65.70
39847;DHT22;25517;52.422;10.782;2023-04-24T10:10:29;21.20;69.50
39847;DHT22;25517;52.422;10.782;2023-04-24T10:12:55;20.60;69.30
39847;DHT22;25517;52.422;10.782;2023-04-24T10:15:21;19.90;70.40
39847;DHT22;25517;52.422;10.782;2023-04-24T10:17:48;19.00;72.50
39847;DHT22;25517;52.422;10.782;2023-04-24T10:20:28;18.50;73.70
39847;DHT22;25517;52.422;10.782;2023-04-24T10:22:55;17.70;76.10
39847;DHT22;25517;52.422;10.782;2023-04-24T10:25:23;16.90;78.30
39847;DHT22;25517;52.422;10.782;2023-04-24T10:27:50;16.80;78.40
39847;DHT22;25517;52.422;10.782;2023-04-24T10:30:17;17.70;80.50
39847;DHT22;25517;52.422;10.782;2023-04-24T10:32:43;19.40;74.90
39847;DHT22;25517;52.422;10.782;2023-04-24T10:35:10;20.60;71.70
39847;DHT22;25517;52.422;10.782;2023-04-24T10:37:39;21.90;66.90
39847;DHT22;25517;52.422;10.782;2023-04-24T10:40:06;22.00;67.30
39847;DHT22;25517;52.422;10.782;2023-04-24T10:42:33;22.30;66.50
39847;DHT22;25517;52.422;10.782;2023-04-24T10:44:58;22.50;64.80
39847;DHT22;25517;52.422;10.782;2023-04-24T10:47:27;23.50;63.00
39847;DHT22;25517;52.422;10.782;2023-04-24T10:49:53;23.50;61.20
39847;DHT22;25517;52.422;10.782;2023-04-24T10:52:19;22.30;62.00
39847;DHT22;25517;52.422;10.782;2023-04-24T10:54:46;21.20;65.30
39847;DHT22;25517;52.422;10.782;2023-04-24T10:59:45;19.20;67.80
39847;DHT22;25517;52.422;10.782;2023-04-24T11:02:10;17.80;70.20
39847;DHT22;25517;52.422;10.782;2023-04-24T11:04:39;17.20;71.30
39847;DHT22;25517;52.422;10.782;2023-04-24T11:07:04;16.60;73.40
39847;DHT22;25517;52.422;10.782;2023-04-24T11:09:31;16.80;75.00
39847;DHT22;25517;52.422;10.782;2023-04-24T11:12:08;17.50;73.70
39847;DHT22;25517;52.422;10.782;2023-04-24T11:17:32;17.50;73.20
39847;DHT22;25517;52.422;10.782;2023-04-24T11:22:33;16.80;73.70
39847;DHT22;25517;52.422;10.782;2023-04-24T11:25:00;16.50;74.30
39847;DHT22;25517;52.422;10.782;2023-04-24T11:27:39;16.70;75.40
39847;DHT22;25517;52.422;10.782;2023-04-24T11:30:06;17.00;75.70
39847;DHT22;25517;52.422;10.782;2023-04-24T11:32:40;16.90;75.00
39847;DHT22;25517;52.422;10.782;2023-04-24T11:37:36;16.40;75.00
39847;DHT22;25517;52.422;10.782;2023-04-24T11:40:03;16.50;75.30
39847;DHT22;25517;52.422;10.782;2023-04-24T11:42:34;16.80;73.70
39847;DHT22;25517;52.422;10.782;2023-04-24T11:45:00;17.90;75.20
39847;DHT22;25517;52.422;10.782;2023-04-24T11:47:30;18.40;72.00
39847;DHT22;25517;52.422;10.782;2023-04-24T11:49:58;18.60;71.90
39847;DHT22;25517;52.422;10.782;2023-04-24T11:52:24;18.50;69.80
39847;DHT22;25517;52.422;10.782;2023-04-24T11:54:50;18.10;71.70
39847;DHT22;25517;52.422;10.782;2023-04-24T11:57:18;17.40;70.80
39847;DHT22;25517;52.422;10.782;2023-04-24T11:59:44;16.80;71.70
39847;DHT22;25517;52.422;10.782;2023-04-24T12:02:23;16.00;74.30
39847;DHT22;25517;52.422;10.782;2023-04-24T12:04:49;15.90;74.20
39847;DHT22;25517;52.422;10.782;2023-04-24T12:07:15;15.90;73.80
39847;DHT22;25517;52.422;10.782;2023-04-24T12:09:45;15.50;75.10
39847;DHT22;25517;52.422;10.782;2023-04-24T12:12:15;15.60;75.10
39847;DHT22;25517;52.422;10.782;2023-04-24T12:14:49;15.60;74.30
39847;DHT22;25517;52.422;10.782;2023-04-24T12:17:31;15.40;74.90
39847;DHT22;25517;52.422;10.782;2023-04-24T12:20:07;15.50;75.70
39847;DHT22;25517;52.422;10.782;2023-04-24T12:25:20;15.30;76.70
39847;DHT22;25517;52.422;10.782;2023-04-24T12:28:08;15.40;75.90
39847;DHT22;25517;52.422;10.782;2023-04-24T12:30:47;15.40;75.60
39847;DHT22;25517;52.422;10.782;2023-04-24T12:33:18;15.20;76.20
39847;DHT22;25517;52.422;10.782;2023-04-24T12:35:44;15.10;77.60
39847;DHT22;25517;52.422;10.782;2023-04-24T12:38:11;15.40;77.40
39847;DHT22;25517;52.422;10.782;2023-04-24T12:40:38;15.60;77.70
39847;DHT22;25517;52.422;10.782;2023-04-24T12:45:39;16.50;77.70
39847;DHT22;25517;52.422;10.782;2023-04-24T12:48:05;16.70;74.70
39847;DHT22;25517;52.422;10.782;2023-04-24T12:50:30;16.70;74.30
39847;DHT22;25517;52.422;10.782;2023-04-24T12:52:56;16.50;75.50
39847;DHT22;25517;52.422;10.782;2023-04-24T12:55:21;16.30;75.80
39847;DHT22;25517;52.422;10.782;2023-04-24T12:57:47;16.00;76.40
39847;DHT22;25517;52.422;10.782;2023-04-24T13:00:13;15.70;78.50
39847;DHT22;25517;52.422;10.782;2023-04-24T13:02:39;15.70;77.90
39847;DHT22;25517;52.422;10.782;2023-04-24T13:05:05;15.00;82.70
39847;DHT22;25517;52.422;10.782;2023-04-24T13:07:31;14.70;85.00
39847;DHT22;25517;52.422;10.782;2023-04-24T13:09:56;14.50;89.00
39847;DHT22;25517;52.422;10.782;2023-04-24T13:12:23;14.20;88.00
39847;DHT22;25517;52.422;10.782;2023-04-24T13:14:51;14.10;88.30
39847;DHT22;25517;52.422;10.782;2023-04-24T13:17:17;13.90;91.00
39847;DHT22;25517;52.422;10.782;2023-04-24T13:19:43;13.80;91.30
39847;DHT22;25517;52.422;10.782;2023-04-24T13:22:10;13.60;91.20
39847;DHT22;25517;52.422;10.782;2023-04-24T13:24:37;13.50;91.50
39847;DHT22;25517;52.422;10.782;2023-04-24T13:27:03;13.40;92.10
39847;DHT22;25517;52.422;10.782;2023-04-24T13:29:28;13.40;92.40
39847;DHT22;25517;52.422;10.782;2023-04-24T13:31:55;13.40;92.50
39847;DHT22;25517;52.422;10.782;2023-04-24T13:34:22;13.40;93.10
39847;DHT22;25517;52.422;10.782;2023-04-24T13:36:50;13.30;93.80
39847;DHT22;25517;52.422;10.782;2023-04-24T13:39:16;13.10;92.10
39847;DHT22;25517;52.422;10.782;2023-04-24T13:41:42;13.00;92.30
39847;DHT22;25517;52.422;10.782;2023-04-24T13:44:08;13.00;92.20
39847;DHT22;25517;52.422;10.782;2023-04-24T13:46:34;12.90;95.10
39847;DHT22;25517;52.422;10.782;2023-04-24T13:49:00;13.10;97.40
39847;DHT22;25517;52.422;10.782;2023-04-24T13:51:26;13.20;99.90
39847;DHT22;25517;52.422;10.782;2023-04-24T13:53:55;13.20;99.90
39847;DHT22;25517;52.422;10.782;2023-04-24T13:56:21;13.00;99.90
39847;DHT22;25517;52.422;10.782;2023-04-24T13:58:47;12.80;99.90
39847;DHT22;25517;52.422;10.782;2023-04-24T14:01:14;12.70;99.90
39847;DHT22;25517;52.422;10.782;2023-04-24T14:03:40;12.50;99.90
39847;DHT22;25517;52.422;10.782;2023-04-24T14:06:06;12.40;99.90
39847;DHT22;25517;52.422;10.782;2023-04-24T14:08:32;12.60;99.90
39847;DHT22;25517;52.422;10.782;2023-04-24T14:10:57;12.50;99.90
39847;DHT22;25517;52.422;10.782;2023-04-24T14:13:23;12.50;99.90
39847;DHT22;25517;52.422;10.782;2023-04-24T14:15:49;12.50;99.90
39847;DHT22;25517;52.422;10.782;2023-04-24T14:18:14;12.40;99.90
39847;DHT22;25517;52.422;10.782;2023-04-24T14:20:40;12.30;99.90
39847;DHT22;25517;52.422;10.782;2023-04-24T14:23:05;12.10;99.90
39847;DHT22;25517;52.422;10.782;2023-04-24T14:25:31;12.20;99.90
39847;DHT22;25517;52.422;10.782;2023-04-24T14:27:56;12.30;99.90
39847;DHT22;25517;52.422;10.782;2023-04-24T14:30:22;12.50;99.90
39847;DHT22;25517;52.422;10.782;2023-04-24T14:32:48;12.60;99.90
39847;DHT22;25517;52.422;10.782;2023-04-24T14:35:14;12.30;99.90
39847;DHT22;25517;52.422;10.782;2023-04-24T14:37:40;12.30;99.90
39847;DHT22;25517;52.422;10.782;2023-04-24T14:40:07;12.20;99.90
39847;DHT22;25517;52.422;10.782;2023-04-24T14:42:34;12.20;99.90
39847;DHT22;25517;52.422;10.782;2023-04-24T14:45:00;12.10;99.90
39847;DHT22;25517;52.422;10.782;2023-04-24T14:47:25;12.10;99.90
39847;DHT22;25517;52.422;10.782;2023-04-24T14:49:51;12.20;99.90
39847;DHT22;25517;52.422;10.782;2023-04-24T14:52:17;12.10;99.90
39847;DHT22;25517;52.422;10.782;2023-04-24T14:54:43;12.10;99.90
39847;DHT22;25517;52.422;10.782;2023-04-24T14:57:08;12.10;99.90
39847;DHT22;25517;52.422;10.782;2023-04-24T14:59:34;12.00;99.90
39847;DHT22;25517;52.422;10.782;2023-04-24T15:02:00;11.90;99.90
39847;DHT22;25517;52.422;10.782;2023-04-24T15:04:25;11.60;99.90
39847;DHT22;25517;52.422;10.782;2023-04-24T15:06:52;11.50;99.90
39847;DHT22;25517;52.422;10.782;2023-04-24T15:09:19;11.40;99.90
39847;DHT22;25517;52.422;10.782;2023-04-24T15:11:46;11.40;99.90
39847;DHT22;25517;52.422;10.782;2023-04-24T15:14:11;11.20;99.90
39847;DHT22;25517;52.422;10.782;2023-04-24T15:16:37;11.10;99.90
39847;DHT22;25517;52.422;10.782;2023-04-24T15:19:02;11.00;99.90
39847;DHT22;25517;52.422;10.782;2023-04-24T15:21:28;10.90;99.90
39847;DHT22;25517;52.422;10.782;2023-04-24T15:23:54;10.80;99.90
39847;DHT22;25517;52.422;10.782;2023-04-24T15:26:19;10.70;99.90
39847;DHT22;25517;52.422;10.782;2023-04-24T15:28:45;10.60;99.90
39847;DHT22;25517;52.422;10.782;2023-04-24T15:31:12;10.50;99.90